Time;durP1;ratioP1;P1;durP2;ratioP2;P2;SDS_P1;SDS_P2;PMS_P1;PMS_P2;Temp;Humidity;BMP_temperature;BMP_pressure;BME280_temperature;BME280_humidity;BME280_pressure;Samples;Min_cycle;Max_cycle;Signal;HPM_P1;HPM_P2
2022/03/06 00:01:09;;;;;;;;;;;;;;;;;;5025996;28;20080;-64
2022/03/06 00:03:35;;;;;;;;;;;;;;;;;;5026039;28;19921;-65
2022/03/06 00:06:01;;;;;;;;;;;;;;;;;;5026347;28;20298;-64
2022/03/06 00:08:27;;;;;;;;;;;;;;;;;;5024919;28;19921;-64
2022/03/06 00:10:53;;;;;;;;;;;;;;;;;;5026169;28;20039;-64
2022/03/06 00:13:20;;;;;;;;;;;;;;;;;;5026288;28;19951;-64
2022/03/06 00:15:46;;;;;;;;;;;;;;;;;;5025720;28;19925;-64
2022/03/06 00:18:12;;;;;;;;;;;;;;;;;;5025615;28;19932;-63
2022/03/06 00:20:38;;;;;;;;;;;;;;;;;;5026190;28;19917;-64
2022/03/06 00:23:05;;;;;;;;;;;;;;;;;;5024530;28;20023;-63
2022/03/06 00:25:31;;;;;;;;;;;;;;;;;;5025215;28;19925;-63
2022/03/06 00:27:57;;;;;;;;;;;;;;;;;;5025536;28;19917;-64
2022/03/06 00:30:24;;;;;;;;;;;;;;;;;;5025390;28;19935;-64
2022/03/06 00:32:50;;;;;;;;;;;;;;;;;;5025787;28;19929;-64
2022/03/06 00:35:16;;;;;;;;;;;;;;;;;;5025325;28;20364;-65
2022/03/06 00:37:42;;;;;;;;;;;;;;;;;;5024774;28;19925;-64
2022/03/06 00:40:08;;;;;;;;;;;;;;;;;;5025674;28;20268;-65
2022/03/06 00:42:34;;;;;;;;;;;;;;;;;;5025760;28;19948;-65
2022/03/06 00:45:00;;;;;;;;;;;;;;;;;;5025563;28;20399;-65
2022/03/06 00:47:26;;;;;;;;;;;;;;;;;;5025662;28;19931;-65
2022/03/06 00:49:52;;;;;;;;;;;;;;;;;;5025863;28;20020;-64
2022/03/06 00:52:18;;;;;;;;;;;;;;;;;;5024411;28;20406;-64
2022/03/06 00:54:44;;;;;;;;;;;;;;;;;;5025581;28;19925;-64
2022/03/06 00:57:10;;;;;;;;;;;;;;;;;;5007514;28;19925;-64
2022/03/06 00:59:36;;;;;;;;;;;;;;;;;;5025616;28;19929;-63
2022/03/06 01:02:02;;;;;;;;;;;;;;;;;;5025866;28;19925;-64
2022/03/06 01:04:28;;;;;;;;;;;;;;;;;;5025237;28;19925;-64
2022/03/06 01:06:54;;;;;;;;;;;;;;;;;;5024414;28;19932;-64
2022/03/06 01:09:20;;;;;;;;;;;;;;;;;;5025597;28;20438;-64
2022/03/06 01:11:46;;;;;;;;;;;;;;;;;;5025540;28;20023;-63
2022/03/06 01:14:12;;;;;;;;;;;;;;;;;;5025291;28;20323;-64
2022/03/06 01:16:38;;;;;;;;;;;;;;;;;;5025506;28;20475;-64
2022/03/06 01:19:04;;;;;;;;;;;;;;;;;;5024597;28;20027;-64
2022/03/06 01:21:30;;;;;;;;;;;;;;;;;;5024729;28;19925;-65
2022/03/06 01:23:56;;;;;;;;;;;;;;;;;;5025085;28;19925;-65
2022/03/06 01:26:22;;;;;;;;;;;;;;;;;;5025439;28;19926;-65
2022/03/06 01:28:48;;;;;;;;;;;;;;;;;;5025155;28;19924;-65
2022/03/06 01:31:14;;;;;;;;;;;;;;;;;;5024683;28;20420;-65
2022/03/06 01:33:40;;;;;;;;;;;;;;;;;;5024809;28;19933;-66
2022/03/06 01:36:06;;;;;;;;;;;;;;;;;;5025408;28;20039;-65
2022/03/06 01:38:32;;;;;;;;;;;;;;;;;;5028957;28;19925;-66
2022/03/06 01:40:58;;;;;;;;;;;;;;;;;;5028951;28;20338;-65
2022/03/06 01:43:24;;;;;;;;;;;;;;;;;;5028564;28;20340;-66
2022/03/06 01:45:50;;;;;;;;;;;;;;;;;;5028843;28;19925;-66
2022/03/06 01:48:16;;;;;;;;;;;;;;;;;;5028200;28;19921;-65
2022/03/06 01:50:42;;;;;;;;;;;;;;;;;;5028720;28;19932;-66
2022/03/06 01:53:08;;;;;;;;;;;;;;;;;;5027880;28;20390;-65
2022/03/06 01:55:34;;;;;;;;;;;;;;;;;;5028548;28;19929;-65
2022/03/06 01:58:00;;;;;;;;;;;;;;;;;;5028586;28;19925;-65
2022/03/06 02:00:26;;;;;;;;;;;;;;;;;;5028657;28;20470;-65
2022/03/06 02:02:52;;;;;;;;;;;;;;;;;;5028113;28;20039;-65
2022/03/06 02:05:18;;;;;;;;;;;;;;;;;;5028223;28;20450;-65
2022/03/06 02:07:44;;;;;;;;;;;;;;;;;;5027764;28;19925;-65
2022/03/06 02:10:10;;;;;;;;;;;;;;;;;;5028145;28;19979;-65
2022/03/06 02:12:36;;;;;;;;;;;;;;;;;;5028361;28;19953;-65
2022/03/06 02:15:02;;;;;;;;;;;;;;;;;;5028012;28;20307;-65
2022/03/06 02:17:28;;;;;;;;;;;;;;;;;;5027966;28;19983;-64
2022/03/06 02:19:54;;;;;;;;;;;;;;;;;;5027835;28;19932;-64
2022/03/06 02:22:20;;;;;;;;;;;;;;;;;;5027266;28;20367;-64
2022/03/06 02:24:46;;;;;;;;;;;;;;;;;;5028073;28;19925;-64
2022/03/06 02:27:12;;;;;;;;;;;;;;;;;;5027895;28;20055;-64
2022/03/06 02:29:38;;;;;;;;;;;;;;;;;;5027080;28;19971;-65
2022/03/06 02:32:04;;;;;;;;;;;;;;;;;;5027528;28;19925;-64
2022/03/06 02:34:30;;;;;;;;;;;;;;;;;;5028433;28;19925;-64
2022/03/06 02:36:56;;;;;;;;;;;;;;;;;;5026759;28;20058;-65
2022/03/06 02:39:22;;;;;;;;;;;;;;;;;;5027744;28;20412;-64
2022/03/06 02:41:48;;;;;;;;;;;;;;;;;;5027668;28;20298;-64
2022/03/06 02:44:14;;;;;;;;;;;;;;;;;;5026946;28;20375;-64
2022/03/06 02:46:40;;;;;;;;;;;;;;;;;;5027733;28;19925;-64
2022/03/06 02:49:07;;;;;;;;;;;;;;;;;;5026522;28;20046;-65
2022/03/06 02:51:33;;;;;;;;;;;;;;;;;;5026904;28;20789;-64
2022/03/06 02:53:58;;;;;;;;;;;;;;;;;;5010042;28;19932;-64
2022/03/06 02:56:24;;;;;;;;;;;;;;;;;;5009508;28;19979;-64
2022/03/06 02:58:50;;;;;;;;;;;;;;;;;;5026940;28;20397;-64
2022/03/06 03:01:16;;;;;;;;;;;;;;;;;;5027320;28;19932;-64
2022/03/06 03:03:44;;;;;;;;;;;;;;;;;;5027444;28;19925;-64
2022/03/06 03:06:10;;;;;;;;;;;;;;;;;;5026677;28;20272;-64
2022/03/06 03:08:36;;;;;;;;;;;;;;;;;;5026594;28;20352;-64
2022/03/06 03:11:02;;;;;;;;;;;;;;;;;;5027359;28;19936;-64
2022/03/06 03:13:28;;;;;;;;;;;;;;;;;;5026948;28;20393;-65
2022/03/06 03:15:54;;;;;;;;;;;;;;;;;;5026392;28;19929;-65
2022/03/06 03:18:20;;;;;;;;;;;;;;;;;;5008695;28;19925;-65
2022/03/06 03:20:46;;;;;;;;;;;;;;;;;;5007354;28;19921;-65
2022/03/06 03:23:12;;;;;;;;;;;;;;;;;;5006462;28;19929;-65
2022/03/06 03:25:38;;;;;;;;;;;;;;;;;;5007308;28;19995;-64
2022/03/06 03:28:04;;;;;;;;;;;;;;;;;;5006792;28;19926;-64
2022/03/06 03:30:30;;;;;;;;;;;;;;;;;;5006759;28;20291;-64
2022/03/06 03:32:56;;;;;;;;;;;;;;;;;;5006925;28;20016;-65
2022/03/06 03:35:22;;;;;;;;;;;;;;;;;;5007181;28;19929;-64
2022/03/06 03:37:48;;;;;;;;;;;;;;;;;;5006389;28;20298;-64
2022/03/06 03:40:14;;;;;;;;;;;;;;;;;;5006389;28;19975;-65
2022/03/06 03:42:40;;;;;;;;;;;;;;;;;;5006706;28;20315;-65
2022/03/06 03:45:06;;;;;;;;;;;;;;;;;;4988828;28;20368;-66
2022/03/06 03:47:32;;;;;;;;;;;;;;;;;;5007453;28;19936;-64
2022/03/06 03:49:58;;;;;;;;;;;;;;;;;;5007009;28;19925;-64
2022/03/06 03:52:24;;;;;;;;;;;;;;;;;;4988389;28;20015;-64
2022/03/06 03:54:50;;;;;;;;;;;;;;;;;;5006257;28;20067;-64
2022/03/06 03:57:16;;;;;;;;;;;;;;;;;;5006269;28;20009;-64
2022/03/06 03:59:42;;;;;;;;;;;;;;;;;;5006321;28;19929;-65
2022/03/06 04:02:08;;;;;;;;;;;;;;;;;;5006603;28;19929;-64
2022/03/06 04:04:34;;;;;;;;;;;;;;;;;;5006790;28;19949;-65
2022/03/06 04:07:00;;;;;;;;;;;;;;;;;;5005834;28;20331;-65
2022/03/06 04:09:26;;;;;;;;;;;;;;;;;;5005936;28;19936;-64
2022/03/06 04:11:52;;;;;;;;;;;;;;;;;;5006206;28;19929;-65
2022/03/06 04:14:18;;;;;;;;;;;;;;;;;;5006030;28;19922;-65
2022/03/06 04:16:44;;;;;;;;;;;;;;;;;;5006375;28;19968;-65
2022/03/06 04:19:10;;;;;;;;;;;;;;;;;;5006320;28;20383;-65
2022/03/06 04:21:36;;;;;;;;;;;;;;;;;;5005657;28;19979;-65
2022/03/06 04:24:02;;;;;;;;;;;;;;;;;;5005591;28;20406;-65
2022/03/06 04:26:28;;;;;;;;;;;;;;;;;;5006512;28;20295;-65
2022/03/06 04:28:54;;;;;;;;;;;;;;;;;;5005713;28;19925;-65
2022/03/06 04:31:20;;;;;;;;;;;;;;;;;;5006137;28;19925;-65
2022/03/06 04:33:46;;;;;;;;;;;;;;;;;;5006135;28;20446;-65
2022/03/06 04:36:12;;;;;;;;;;;;;;;;;;5005075;28;20021;-65
2022/03/06 04:38:39;;;;;;;;;;;;;;;;;;5005865;28;20012;-65
2022/03/06 04:41:05;;;;;;;;;;;;;;;;;;5005776;28;20295;-66
2022/03/06 04:43:31;;;;;;;;;;;;;;;;;;5006209;28;20356;-66
2022/03/06 04:45:57;;;;;;;;;;;;;;;;;;4987956;28;20415;-66
2022/03/06 04:48:23;;;;;;;;;;;;;;;;;;5006042;28;19929;-67
2022/03/06 04:50:49;;;;;;;;;;;;;;;;;;5005838;28;20434;-67
2022/03/06 04:53:15;;;;;;;;;;;;;;;;;;5004884;28;19926;-67
2022/03/06 04:55:41;;;;;;;;;;;;;;;;;;5005820;28;19932;-66
2022/03/06 04:58:07;;;;;;;;;;;;;;;;;;5005502;28;19949;-66
2022/03/06 05:00:33;;;;;;;;;;;;;;;;;;5006004;28;20391;-66
2022/03/06 05:02:59;;;;;;;;;;;;;;;;;;5006045;28;19932;-66
2022/03/06 05:05:25;;;;;;;;;;;;;;;;;;5005475;28;19926;-66
2022/03/06 05:07:51;;;;;;;;;;;;;;;;;;5005259;28;20016;-66
2022/03/06 05:10:17;;;;;;;;;;;;;;;;;;5005400;28;19977;-66
2022/03/06 05:12:43;;;;;;;;;;;;;;;;;;5008732;28;19929;-65
2022/03/06 05:15:09;;;;;;;;;;;;;;;;;;5009532;28;19995;-65
2022/03/06 05:17:35;;;;;;;;;;;;;;;;;;5009837;28;20601;-65
2022/03/06 05:20:01;;;;;;;;;;;;;;;;;;5009274;28;20414;-66
2022/03/06 05:22:27;;;;;;;;;;;;;;;;;;5008801;28;19951;-66
2022/03/06 05:24:53;;;;;;;;;;;;;;;;;;5009722;28;19933;-65
2022/03/06 05:27:19;;;;;;;;;;;;;;;;;;5009277;28;19926;-66
2022/03/06 05:29:45;;;;;;;;;;;;;;;;;;5009030;28;20016;-65
2022/03/06 05:32:11;;;;;;;;;;;;;;;;;;5009043;28;19932;-65
2022/03/06 05:34:37;;;;;;;;;;;;;;;;;;5008804;28;20372;-65
2022/03/06 05:37:03;;;;;;;;;;;;;;;;;;5008187;28;19933;-65
2022/03/06 05:39:29;;;;;;;;;;;;;;;;;;5009633;28;19972;-65
2022/03/06 05:41:55;;;;;;;;;;;;;;;;;;5008933;28;19925;-65
2022/03/06 05:44:21;;;;;;;;;;;;;;;;;;5009237;28;19965;-65
2022/03/06 05:46:47;;;;;;;;;;;;;;;;;;5008989;28;19932;-66
2022/03/06 05:49:13;;;;;;;;;;;;;;;;;;5008363;28;19929;-65
2022/03/06 05:51:39;;;;;;;;;;;;;;;;;;5008365;28;19925;-65
2022/03/06 05:54:06;;;;;;;;;;;;;;;;;;5008917;28;19925;-65
2022/03/06 05:56:32;;;;;;;;;;;;;;;;;;5008964;28;19925;-65
2022/03/06 05:58:58;;;;;;;;;;;;;;;;;;5009042;28;19926;-65
2022/03/06 06:01:24;;;;;;;;;;;;;;;;;;5008610;28;19925;-65
2022/03/06 06:03:50;;;;;;;;;;;;;;;;;;5008749;28;19932;-66
2022/03/06 06:06:16;;;;;;;;;;;;;;;;;;5007966;28;19926;-66
2022/03/06 06:08:42;;;;;;;;;;;;;;;;;;5008535;28;19932;-64
2022/03/06 06:11:08;;;;;;;;;;;;;;;;;;4990671;28;20360;-65
2022/03/06 06:13:34;;;;;;;;;;;;;;;;;;5008581;28;19926;-65
2022/03/06 06:16:01;;;;;;;;;;;;;;;;;;5008190;28;19948;-65
2022/03/06 06:18:30;;;;;;;;;;;;;;;;;;5018360;28;20355;-65
2022/03/06 06:20:56;;;;;;;;;;;;;;;;;;5026618;28;19932;-65
2022/03/06 06:23:22;;;;;;;;;;;;;;;;;;5027260;28;19929;-65
2022/03/06 06:25:48;;;;;;;;;;;;;;;;;;5027643;28;19925;-65
2022/03/06 06:28:14;;;;;;;;;;;;;;;;;;5026960;28;20348;-65
2022/03/06 06:30:41;;;;;;;;;;;;;;;;;;5026362;28;20387;-65
2022/03/06 06:33:06;;;;;;;;;;;;;;;;;;5026919;28;19932;-65
2022/03/06 06:35:34;;;;;;;;;;;;;;;;;;5027512;28;19933;-65
2022/03/06 06:38:00;;;;;;;;;;;;;;;;;;5026111;28;19926;-65
2022/03/06 06:40:26;;;;;;;;;;;;;;;;;;5027257;28;19932;-65
2022/03/06 06:42:52;;;;;;;;;;;;;;;;;;5027156;28;20011;-65
2022/03/06 06:45:18;;;;;;;;;;;;;;;;;;5026735;28;20019;-65
2022/03/06 06:47:44;;;;;;;;;;;;;;;;;;5027013;28;19929;-65
2022/03/06 06:50:10;;;;;;;;;;;;;;;;;;5026584;28;19925;-65
2022/03/06 06:52:36;;;;;;;;;;;;;;;;;;5025989;28;19925;-65
2022/03/06 06:55:02;;;;;;;;;;;;;;;;;;5027185;28;19936;-65
2022/03/06 06:57:29;;;;;;;;;;;;;;;;;;5026878;28;19925;-66
2022/03/06 06:59:55;;;;;;;;;;;;;;;;;;5026379;28;19925;-65
2022/03/06 07:02:21;;;;;;;;;;;;;;;;;;5026884;28;19996;-68
2022/03/06 07:04:47;;;;;;;;;;;;;;;;;;5027010;28;20379;-66
2022/03/06 07:07:13;;;;;;;;;;;;;;;;;;5026196;28;20026;-66
2022/03/06 07:09:39;;;;;;;;;;;;;;;;;;5027168;28;19929;-66
2022/03/06 07:12:06;;;;;;;;;;;;;;;;;;5026737;28;20012;-65
2022/03/06 07:14:32;;;;;;;;;;;;;;;;;;5026035;28;20315;-66
2022/03/06 07:16:58;;;;;;;;;;;;;;;;;;5025761;28;20403;-65
2022/03/06 07:19:24;;;;;;;;;;;;;;;;;;5025904;28;19956;-66
2022/03/06 07:21:50;;;;;;;;;;;;;;;;;;5024959;28;20023;-66
2022/03/06 07:24:16;;;;;;;;;;;;;;;;;;5025525;28;20067;-66
2022/03/06 07:26:42;;;;;;;;;;;;;;;;;;5025969;28;20418;-65
2022/03/06 07:29:08;;;;;;;;;;;;;;;;;;5024845;28;19925;-65
2022/03/06 07:31:34;;;;;;;;;;;;;;;;;;5023160;28;20013;-65
2022/03/06 07:34:00;;;;;;;;;;;;;;;;;;5018164;28;20330;-65
2022/03/06 07:36:26;;;;;;;;;;;;;;;;;;4993450;28;19926;-65
2022/03/06 07:38:52;;;;;;;;;;;;;;;;;;5006204;28;20232;-64
2022/03/06 07:41:18;;;;;;;;;;;;;;;;;;5006377;28;20453;-65
2022/03/06 07:43:44;;;;;;;;;;;;;;;;;;5010900;28;19971;-64
2022/03/06 07:46:10;;;;;;;;;;;;;;;;;;5011172;28;19932;-65
2022/03/06 07:48:36;;;;;;;;;;;;;;;;;;5010869;28;19929;-65
2022/03/06 07:51:02;;;;;;;;;;;;;;;;;;5009306;28;19979;-65
2022/03/06 07:53:29;;;;;;;;;;;;;;;;;;5009907;28;19983;-65
2022/03/06 07:55:55;;;;;;;;;;;;;;;;;;5010965;28;19933;-65
2022/03/06 07:58:21;;;;;;;;;;;;;;;;;;5007487;28;19926;-65
2022/03/06 08:00:47;;;;;;;;;;;;;;;;;;5009928;28;20398;-65
2022/03/06 08:03:13;;;;;;;;;;;;;;;;;;5005995;28;19928;-65
2022/03/06 08:05:39;;;;;;;;;;;;;;;;;;5009368;28;19948;-65
2022/03/06 08:08:05;;;;;;;;;;;;;;;;;;5023832;28;19922;-65
2022/03/06 08:10:31;;;;;;;;;;;;;;;;;;5022542;28;19925;-64
2022/03/06 08:12:57;;;;;;;;;;;;;;;;;;5008607;28;19925;-64
2022/03/06 08:15:23;;;;;;;;;;;;;;;;;;5026061;28;20200;-65
2022/03/06 08:17:49;;;;;;;;;;;;;;;;;;5026159;28;19925;-64
2022/03/06 08:20:15;;;;;;;;;;;;;;;;;;5021819;28;19924;-65
2022/03/06 08:22:41;;;;;;;;;;;;;;;;;;5025462;28;20307;-65
2022/03/06 08:25:07;;;;;;;;;;;;;;;;;;5025628;28;19925;-65
2022/03/06 08:27:34;;;;;;;;;;;;;;;;;;5026223;28;20376;-65
2022/03/06 08:30:00;;;;;;;;;;;;;;;;;;5026201;28;20415;-65
2022/03/06 08:32:26;;;;;;;;;;;;;;;;;;5019782;28;19933;-65
2022/03/06 08:34:52;;;;;;;;;;;;;;;;;;4997242;28;19932;-65
2022/03/06 08:37:18;;;;;;;;;;;;;;;;;;5020159;28;19925;-65
2022/03/06 08:39:44;;;;;;;;;;;;;;;;;;5025226;28;20450;-65
2022/03/06 08:42:10;;;;;;;;;;;;;;;;;;5007336;28;19925;-65
2022/03/06 08:44:36;;;;;;;;;;;;;;;;;;5021617;28;19926;-65
2022/03/06 08:47:02;;;;;;;;;;;;;;;;;;5020316;28;19933;-65
2022/03/06 08:49:28;;;;;;;;;;;;;;;;;;5029862;28;19932;-65
2022/03/06 08:51:54;;;;;;;;;;;;;;;;;;5020391;28;19933;-66
2022/03/06 08:54:21;;;;;;;;;;;;;;;;;;5029521;28;19925;-65
2022/03/06 08:56:47;;;;;;;;;;;;;;;;;;5008070;28;19925;-66
2022/03/06 08:59:13;;;;;;;;;;;;;;;;;;5029082;28;20400;-66
2022/03/06 09:01:39;;;;;;;;;;;;;;;;;;5024107;28;20391;-66
2022/03/06 09:04:05;;;;;;;;;;;;;;;;;;5020918;28;20008;-66
2022/03/06 09:06:31;;;;;;;;;;;;;;;;;;5022802;28;19933;-66
2022/03/06 09:08:57;;;;;;;;;;;;;;;;;;5020784;28;20663;-65
2022/03/06 09:11:23;;;;;;;;;;;;;;;;;;5026068;28;20039;-66
2022/03/06 09:13:49;;;;;;;;;;;;;;;;;;5025061;28;19932;-66
2022/03/06 09:16:15;;;;;;;;;;;;;;;;;;5025311;28;19925;-66
2022/03/06 09:18:43;;;;;;;;;;;;;;;;;;5018284;28;20397;-66
2022/03/06 09:21:09;;;;;;;;;;;;;;;;;;5015637;28;20004;-66
2022/03/06 09:23:35;;;;;;;;;;;;;;;;;;5017892;28;20381;-65
2022/03/06 09:26:02;;;;;;;;;;;;;;;;;;5018149;28;20029;-65
2022/03/06 09:28:28;;;;;;;;;;;;;;;;;;5019381;28;19986;-65
2022/03/06 09:30:54;;;;;;;;;;;;;;;;;;5015993;28;19933;-65
2022/03/06 09:33:20;;;;;;;;;;;;;;;;;;5022287;28;19929;-65
2022/03/06 09:41:52;;;;;;;;;;;;;;;;;;5026787;28;20353;-66
2022/03/06 09:44:18;;;;;;;;;;;;;;;;;;5020688;28;19925;-66
2022/03/06 09:46:44;;;;;;;;;;;;;;;;;;5023137;28;19923;-66
2022/03/06 09:49:10;;;;;;;;;;;;;;;;;;5025042;28;19926;-65
2022/03/06 09:51:38;;;;;;;;;;;;;;;;;;5025083;28;19937;-65
2022/03/06 09:54:04;;;;;;;;;;;;;;;;;;5027256;28;19921;-65
2022/03/06 09:56:30;;;;;;;;;;;;;;;;;;5028814;28;20258;-65
2022/03/06 09:58:56;;;;;;;;;;;;;;;;;;5018285;28;20355;-65
2022/03/06 10:01:22;;;;;;;;;;;;;;;;;;5023056;28;19925;-65
2022/03/06 10:03:48;;;;;;;;;;;;;;;;;;5028635;28;20022;-65
2022/03/06 10:06:14;;;;;;;;;;;;;;;;;;5008755;28;19929;-63
2022/03/06 10:08:40;;;;;;;;;;;;;;;;;;5027844;28;19979;-62
2022/03/06 10:11:06;;;;;;;;;;;;;;;;;;5026381;28;19933;-61
2022/03/06 10:13:32;;;;;;;;;;;;;;;;;;5028109;28;19936;-61
2022/03/06 10:15:58;;;;;;;;;;;;;;;;;;5027507;28;20291;-62
2022/03/06 10:18:24;;;;;;;;;;;;;;;;;;5027430;28;20448;-61
2022/03/06 10:20:50;;;;;;;;;;;;;;;;;;5026826;28;19925;-62
2022/03/06 10:23:16;;;;;;;;;;;;;;;;;;5026943;28;20276;-62
2022/03/06 10:25:42;;;;;;;;;;;;;;;;;;5027634;28;19929;-62
2022/03/06 10:28:08;;;;;;;;;;;;;;;;;;5027177;28;19937;-62
2022/03/06 10:30:34;;;;;;;;;;;;;;;;;;5026427;28;20460;-62
2022/03/06 10:33:00;;;;;;;;;;;;;;;;;;5027020;28;19925;-62
2022/03/06 10:35:26;;;;;;;;;;;;;;;;;;5026172;28;19928;-62
2022/03/06 10:37:52;;;;;;;;;;;;;;;;;;5027049;28;19940;-62
2022/03/06 10:40:18;;;;;;;;;;;;;;;;;;5026866;28;19968;-63
2022/03/06 10:42:44;;;;;;;;;;;;;;;;;;5027068;28;19943;-63
2022/03/06 10:45:10;;;;;;;;;;;;;;;;;;5027068;28;19925;-62
2022/03/06 10:47:36;;;;;;;;;;;;;;;;;;5027002;28;20283;-63
2022/03/06 10:50:02;;;;;;;;;;;;;;;;;;5025877;28;19933;-63
2022/03/06 10:52:28;;;;;;;;;;;;;;;;;;5027489;28;19940;-63
2022/03/06 10:54:54;;;;;;;;;;;;;;;;;;5026774;28;19959;-63
2022/03/06 10:57:20;;;;;;;;;;;;;;;;;;5026641;28;19948;-62
2022/03/06 10:59:46;;;;;;;;;;;;;;;;;;5026492;28;19979;-63
2022/03/06 11:02:13;;;;;;;;;;;;;;;;;;5026375;28;19929;-63
2022/03/06 11:04:39;;;;;;;;;;;;;;;;;;5026486;28;20020;-63
2022/03/06 11:07:05;;;;;;;;;;;;;;;;;;5025976;28;19929;-63
2022/03/06 11:09:31;;;;;;;;;;;;;;;;;;5025857;28;19925;-63
2022/03/06 11:11:58;;;;;;;;;;;;;;;;;;5027067;28;19925;-63
2022/03/06 11:14:24;;;;;;;;;;;;;;;;;;5026501;28;20560;-62
2022/03/06 11:16:50;;;;;;;;;;;;;;;;;;5026297;28;19932;-63
2022/03/06 11:19:16;;;;;;;;;;;;;;;;;;5026478;28;19925;-63
2022/03/06 11:21:42;;;;;;;;;;;;;;;;;;5025856;28;19947;-63
2022/03/06 11:24:08;;;;;;;;;;;;;;;;;;5026110;28;19925;-63
2022/03/06 11:26:34;;;;;;;;;;;;;;;;;;5025900;28;20338;-63
2022/03/06 11:29:00;;;;;;;;;;;;;;;;;;5025899;28;19986;-63
2022/03/06 11:31:26;;;;;;;;;;;;;;;;;;5024725;28;19925;-63
2022/03/06 11:33:54;;;;;;;;;;;;;;;;;;5025723;28;19983;-63
2022/03/06 11:36:21;;;;;;;;;;;;;;;;;;5023063;28;19925;-63
2022/03/06 11:38:48;;;;;;;;;;;;;;;;;;5025913;28;19925;-62
2022/03/06 11:41:14;;;;;;;;;;;;;;;;;;5025716;28;19933;-63
2022/03/06 11:43:44;;;;;;;;;;;;;;;;;;5007884;28;19931;-63
2022/03/06 11:46:12;;;;;;;;;;;;;;;;;;5023723;28;19925;-63
2022/03/06 11:48:38;;;;;;;;;;;;;;;;;;5025528;28;19933;-63
2022/03/06 11:51:04;;;;;;;;;;;;;;;;;;5023076;28;19972;-63
2022/03/06 11:53:30;;;;;;;;;;;;;;;;;;5014248;28;20106;-63
2022/03/06 11:55:56;;;;;;;;;;;;;;;;;;5010675;28;20065;-63
2022/03/06 11:58:23;;;;;;;;;;;;;;;;;;5010237;28;21375;-63
2022/03/06 12:00:49;;;;;;;;;;;;;;;;;;5016970;28;20012;-63
2022/03/06 12:03:15;;;;;;;;;;;;;;;;;;5003617;28;20374;-63
2022/03/06 12:05:41;;;;;;;;;;;;;;;;;;5025588;28;19925;-63
2022/03/06 12:08:07;;;;;;;;;;;;;;;;;;5023725;28;19936;-63
2022/03/06 12:10:33;;;;;;;;;;;;;;;;;;5012682;28;19972;-63
2022/03/06 12:12:59;;;;;;;;;;;;;;;;;;5022373;28;19964;-64
2022/03/06 12:15:26;;;;;;;;;;;;;;;;;;5018142;28;20378;-64
2022/03/06 12:17:52;;;;;;;;;;;;;;;;;;5016257;28;20012;-64
2022/03/06 12:20:23;;;;;;;;;;;;;;;;;;5021531;28;20016;-64
2022/03/06 12:22:49;;;;;;;;;;;;;;;;;;5022922;28;19932;-64
2022/03/06 12:25:15;;;;;;;;;;;;;;;;;;5022660;28;19980;-64
2022/03/06 12:27:41;;;;;;;;;;;;;;;;;;5023443;28;19925;-64
2022/03/06 12:30:07;;;;;;;;;;;;;;;;;;5004033;28;19925;-64
2022/03/06 12:32:33;;;;;;;;;;;;;;;;;;5004692;28;20048;-65
2022/03/06 12:34:59;;;;;;;;;;;;;;;;;;5022459;28;19933;-64
2022/03/06 12:37:25;;;;;;;;;;;;;;;;;;5023192;28;20712;-64
2022/03/06 12:39:51;;;;;;;;;;;;;;;;;;5023477;28;19929;-64
2022/03/06 12:42:17;;;;;;;;;;;;;;;;;;5023374;28;19932;-64
2022/03/06 12:44:43;;;;;;;;;;;;;;;;;;5022851;28;20402;-64
2022/03/06 12:47:09;;;;;;;;;;;;;;;;;;5022676;28;19965;-64
2022/03/06 12:49:35;;;;;;;;;;;;;;;;;;5023114;28;19996;-64
2022/03/06 12:52:01;;;;;;;;;;;;;;;;;;5004518;28;19945;-64
2022/03/06 12:54:27;;;;;;;;;;;;;;;;;;5023458;28;19929;-63
2022/03/06 12:56:53;;;;;;;;;;;;;;;;;;5022449;28;20379;-64
2022/03/06 12:59:19;;;;;;;;;;;;;;;;;;5022595;28;20310;-64
2022/03/06 13:01:45;;;;;;;;;;;;;;;;;;5023314;28;19947;-64
2022/03/06 13:04:11;;;;;;;;;;;;;;;;;;5022825;28;20368;-63
2022/03/06 13:06:38;;;;;;;;;;;;;;;;;;5022187;28;19929;-64
2022/03/06 13:09:04;;;;;;;;;;;;;;;;;;5017619;28;19976;-64
2022/03/06 13:11:30;;;;;;;;;;;;;;;;;;5022665;28;19935;-64
2022/03/06 13:13:56;;;;;;;;;;;;;;;;;;5004305;28;20013;-64
2022/03/06 13:16:22;;;;;;;;;;;;;;;;;;5022294;28;20051;-64
2022/03/06 13:18:48;;;;;;;;;;;;;;;;;;5022264;28;20046;-64
2022/03/06 13:21:14;;;;;;;;;;;;;;;;;;5020826;28;20425;-64
2022/03/06 13:23:40;;;;;;;;;;;;;;;;;;5022133;28;19929;-64
2022/03/06 13:26:06;;;;;;;;;;;;;;;;;;5022018;28;19948;-64
2022/03/06 13:28:32;;;;;;;;;;;;;;;;;;5022305;28;19932;-65
2022/03/06 13:30:58;;;;;;;;;;;;;;;;;;5021086;28;20306;-64
2022/03/06 13:33:24;;;;;;;;;;;;;;;;;;5024508;28;20409;-64
2022/03/06 13:35:50;;;;;;;;;;;;;;;;;;5024993;28;21895;-64
2022/03/06 13:38:16;;;;;;;;;;;;;;;;;;5025762;28;19929;-64
2022/03/06 13:40:42;;;;;;;;;;;;;;;;;;5004182;28;20366;-64
2022/03/06 13:43:08;;;;;;;;;;;;;;;;;;5025818;28;19980;-64
2022/03/06 13:45:34;;;;;;;;;;;;;;;;;;5025706;28;19962;-64
2022/03/06 13:48:01;;;;;;;;;;;;;;;;;;5025813;28;20378;-64
2022/03/06 13:50:27;;;;;;;;;;;;;;;;;;5021338;28;20035;-64
2022/03/06 13:52:53;;;;;;;;;;;;;;;;;;5025361;28;20043;-64
2022/03/06 13:55:20;;;;;;;;;;;;;;;;;;5026162;28;19936;-64
2022/03/06 13:57:46;;;;;;;;;;;;;;;;;;5025374;28;19952;-64
2022/03/06 14:00:13;;;;;;;;;;;;;;;;;;5007637;28;20446;-64
2022/03/06 14:02:38;;;;;;;;;;;;;;;;;;5025577;28;19982;-64
2022/03/06 14:05:04;;;;;;;;;;;;;;;;;;5024377;28;19933;-64
2022/03/06 14:07:30;;;;;;;;;;;;;;;;;;5025879;28;20409;-64
2022/03/06 14:09:56;;;;;;;;;;;;;;;;;;5025161;28;19971;-64
2022/03/06 14:12:22;;;;;;;;;;;;;;;;;;5025475;28;20273;-64
2022/03/06 14:14:49;;;;;;;;;;;;;;;;;;5007864;28;20410;-64
2022/03/06 14:17:15;;;;;;;;;;;;;;;;;;5025335;28;19994;-64
2022/03/06 14:19:41;;;;;;;;;;;;;;;;;;5024794;28;19976;-63
2022/03/06 14:22:07;;;;;;;;;;;;;;;;;;5024584;28;19987;-64
2022/03/06 14:24:33;;;;;;;;;;;;;;;;;;5024947;28;19929;-64
2022/03/06 14:26:59;;;;;;;;;;;;;;;;;;5007620;28;20247;-64
2022/03/06 14:29:26;;;;;;;;;;;;;;;;;;5025143;28;19929;-64
2022/03/06 14:31:52;;;;;;;;;;;;;;;;;;5025172;28;19929;-64
2022/03/06 14:34:18;;;;;;;;;;;;;;;;;;5024067;28;19925;-64
2022/03/06 14:36:44;;;;;;;;;;;;;;;;;;5024986;28;20410;-63
2022/03/06 14:39:10;;;;;;;;;;;;;;;;;;5024856;28;20393;-63
2022/03/06 14:41:36;;;;;;;;;;;;;;;;;;5007113;28;19929;-63
2022/03/06 14:44:02;;;;;;;;;;;;;;;;;;5023216;28;19929;-63
2022/03/06 14:46:29;;;;;;;;;;;;;;;;;;5007373;28;19935;-63
2022/03/06 14:48:55;;;;;;;;;;;;;;;;;;5024690;28;19933;-63
2022/03/06 14:51:21;;;;;;;;;;;;;;;;;;5022246;28;20741;-63
2022/03/06 14:53:47;;;;;;;;;;;;;;;;;;5024692;28;19936;-63
2022/03/06 14:56:13;;;;;;;;;;;;;;;;;;5017602;28;19930;-63
2022/03/06 14:58:39;;;;;;;;;;;;;;;;;;5020634;28;19925;-63
2022/03/06 15:01:05;;;;;;;;;;;;;;;;;;5025497;28;19929;-63
2022/03/06 15:03:31;;;;;;;;;;;;;;;;;;5025092;28;20367;-63
2022/03/06 15:05:57;;;;;;;;;;;;;;;;;;5016119;28;19925;-63
2022/03/06 15:08:24;;;;;;;;;;;;;;;;;;5024117;28;19979;-63
2022/03/06 15:10:50;;;;;;;;;;;;;;;;;;5021804;28;19956;-64
2022/03/06 15:13:16;;;;;;;;;;;;;;;;;;5019238;28;20299;-64
2022/03/06 15:15:42;;;;;;;;;;;;;;;;;;5003492;28;19944;-65
2022/03/06 15:18:08;;;;;;;;;;;;;;;;;;5004335;28;19991;-65
2022/03/06 15:20:34;;;;;;;;;;;;;;;;;;5022838;28;19925;-65
2022/03/06 15:23:00;;;;;;;;;;;;;;;;;;5024344;28;20295;-62
2022/03/06 15:25:27;;;;;;;;;;;;;;;;;;5006057;28;19936;-64
2022/03/06 15:27:52;;;;;;;;;;;;;;;;;;5023999;28;19929;-63
2022/03/06 15:30:19;;;;;;;;;;;;;;;;;;5023202;28;19925;-65
2022/03/06 15:32:44;;;;;;;;;;;;;;;;;;5019857;28;19929;-65
2022/03/06 15:35:11;;;;;;;;;;;;;;;;;;5019351;28;19917;-65
2022/03/06 15:37:37;;;;;;;;;;;;;;;;;;5003449;28;19925;-65
2022/03/06 15:40:03;;;;;;;;;;;;;;;;;;5022077;28;19967;-65
2022/03/06 15:42:29;;;;;;;;;;;;;;;;;;5021475;28;19965;-65
2022/03/06 15:44:55;;;;;;;;;;;;;;;;;;5023069;28;19979;-65
2022/03/06 15:47:21;;;;;;;;;;;;;;;;;;5023758;28;20365;-65
2022/03/06 15:49:47;;;;;;;;;;;;;;;;;;5005423;28;19972;-65
2022/03/06 15:52:13;;;;;;;;;;;;;;;;;;5023421;28;20027;-65
2022/03/06 15:54:39;;;;;;;;;;;;;;;;;;5005678;28;20334;-63
2022/03/06 15:57:05;;;;;;;;;;;;;;;;;;5022934;28;20753;-63
2022/03/06 15:59:31;;;;;;;;;;;;;;;;;;5023080;28;19933;-64
2022/03/06 16:01:57;;;;;;;;;;;;;;;;;;5020613;28;19925;-65
2022/03/06 16:04:23;;;;;;;;;;;;;;;;;;5018765;28;20371;-65
2022/03/06 16:06:49;;;;;;;;;;;;;;;;;;5023712;28;19936;-66
2022/03/06 16:09:15;;;;;;;;;;;;;;;;;;5022700;28;19935;-66
2022/03/06 16:11:41;;;;;;;;;;;;;;;;;;5022418;28;19925;-66
2022/03/06 16:14:07;;;;;;;;;;;;;;;;;;5024909;28;19921;-65
2022/03/06 16:16:33;;;;;;;;;;;;;;;;;;5025509;28;19933;-65
2022/03/06 16:18:59;;;;;;;;;;;;;;;;;;5025524;28;19972;-66
2022/03/06 16:21:25;;;;;;;;;;;;;;;;;;5021807;28;19925;-65
2022/03/06 16:23:51;;;;;;;;;;;;;;;;;;5025921;28;19925;-65
2022/03/06 16:26:17;;;;;;;;;;;;;;;;;;5025440;28;19933;-65
2022/03/06 16:28:45;;;;;;;;;;;;;;;;;;5022218;28;20103;-65
2022/03/06 16:31:10;;;;;;;;;;;;;;;;;;5019141;28;19932;-66
2022/03/06 16:33:37;;;;;;;;;;;;;;;;;;5024802;28;19925;-65
2022/03/06 16:36:03;;;;;;;;;;;;;;;;;;5020214;28;20306;-65
2022/03/06 16:38:29;;;;;;;;;;;;;;;;;;5025530;28;19925;-65
2022/03/06 16:40:55;;;;;;;;;;;;;;;;;;5024761;28;19925;-66
2022/03/06 16:43:21;;;;;;;;;;;;;;;;;;5025342;28;20271;-65